Time;durP1;ratioP1;P1;durP2;ratioP2;P2;SDS_P1;SDS_P2;PMS_P1;PMS_P2;Temp;Humidity;BMP_temperature;BMP_pressure;BME280_temperature;BME280_humidity;BME280_pressure;Samples;Min_cycle;Max_cycle;Signal;HPM_P1;HPM_P2
2023/11/08 00:00:08;;;;;;;;;;;13.00;70.00;;;;;;5034055;27;86993;-53
2023/11/08 00:02:34;;;;;;;;;;;13.00;69.90;;;;;;5035977;28;88754;-55
2023/11/08 00:05:00;;;;;;;;;;;12.90;69.80;;;;;;5034238;28;87010;-54
2023/11/08 00:07:26;;;;;;;;;;;12.90;69.90;;;;;;5033673;28;87652;-55
2023/11/08 00:09:51;;;;;;;;;;;12.90;69.90;;;;;;5037881;28;89115;-54
2023/11/08 00:12:17;;;;;;;;;;;13.00;70.00;;;;;;5034032;28;88655;-53
2023/11/08 00:14:43;;;;;;;;;;;12.90;69.80;;;;;;5035402;28;87842;-50
2023/11/08 00:17:09;;;;;;;;;;;13.00;69.90;;;;;;5034114;28;86940;-54
2023/11/08 00:19:34;;;;;;;;;;;12.90;69.80;;;;;;5033466;28;87286;-55
2023/11/08 00:22:00;;;;;;;;;;;12.90;69.80;;;;;;5027504;28;87982;-55
2023/11/08 00:24:28;;;;;;;;;;;12.90;69.90;;;;;;5029231;28;87083;-56
2023/11/08 00:26:54;;;;;;;;;;;12.90;69.90;;;;;;5035515;28;87379;-55
2023/11/08 00:29:20;;;;;;;;;;;12.90;69.90;;;;;;5035303;27;89097;-53
2023/11/08 00:31:45;;;;;;;;;;;12.90;69.90;;;;;;5036967;27;87094;-55
2023/11/08 00:34:13;;;;;;;;;;;12.90;69.90;;;;;;5036007;28;89084;-52
2023/11/08 00:36:39;;;;;;;;;;;12.90;70.40;;;;;;5035341;27;87194;-51
2023/11/08 00:39:04;;;;;;;;;;;12.90;69.90;;;;;;5037325;28;87648;-49
2023/11/08 00:41:31;;;;;;;;;;;12.90;69.80;;;;;;5034079;28;87337;-55
2023/11/08 00:43:57;;;;;;;;;;;12.90;69.80;;;;;;5032489;28;87242;-56
2023/11/08 00:46:23;;;;;;;;;;;12.90;70.00;;;;;;5034905;27;88960;-54
2023/11/08 00:48:49;;;;;;;;;;;12.90;69.90;;;;;;5030511;28;87684;-52
2023/11/08 00:51:14;;;;;;;;;;;12.90;69.90;;;;;;5040228;27;86375;-53
2023/11/08 00:53:40;;;;;;;;;;;12.90;69.90;;;;;;5030076;28;88195;-55
2023/11/08 00:56:05;;;;;;;;;;;12.90;69.90;;;;;;5028978;27;87304;-51
2023/11/08 00:58:31;;;;;;;;;;;12.90;70.00;;;;;;5032547;28;88043;-51
2023/11/08 01:00:57;;;;;;;;;;;12.90;69.90;;;;;;5035858;27;87400;-54
2023/11/08 01:03:22;;;;;;;;;;;12.90;69.90;;;;;;5028172;27;87239;-50
2023/11/08 01:05:48;;;;;;;;;;;12.90;69.90;;;;;;5034214;28;87553;-54
2023/11/08 01:08:13;;;;;;;;;;;12.90;70.00;;;;;;5034171;28;88014;-51
2023/11/08 01:10:42;;;;;;;;;;;12.90;69.90;;;;;;5032487;28;87059;-55
2023/11/08 01:13:08;;;;;;;;;;;12.90;69.90;;;;;;5034828;27;88837;-54
2023/11/08 01:15:34;;;;;;;;;;;12.90;69.80;;;;;;5035318;28;86336;-52
2023/11/08 01:17:59;;;;;;;;;;;12.90;70.00;;;;;;5032602;28;87063;-52
2023/11/08 01:20:25;;;;;;;;;;;12.90;70.00;;;;;;5026733;28;88131;-54
2023/11/08 01:22:50;;;;;;;;;;;12.90;70.00;;;;;;5034740;28;88000;-54
2023/11/08 01:25:16;;;;;;;;;;;12.90;69.80;;;;;;5028871;28;88217;-53
2023/11/08 01:27:42;;;;;;;;;;;12.90;69.90;;;;;;5030885;28;87977;-54
2023/11/08 01:30:08;;;;;;;;;;;12.90;70.00;;;;;;5030405;27;87460;-55
2023/11/08 01:32:33;;;;;;;;;;;12.90;70.00;;;;;;5032855;28;87204;-52
2023/11/08 01:34:59;;;;;;;;;;;12.90;69.70;;;;;;5033548;28;88055;-49
2023/11/08 01:37:25;;;;;;;;;;;12.90;69.80;;;;;;5032129;28;86964;-51
2023/11/08 01:39:51;;;;;;;;;;;12.90;69.90;;;;;;5034056;27;88274;-52
2023/11/08 01:42:20;;;;;;;;;;;12.90;69.90;;;;;;5029252;28;87802;-52
2023/11/08 01:44:46;;;;;;;;;;;12.90;69.90;;;;;;5034637;28;87062;-51
2023/11/08 01:47:14;;;;;;;;;;;12.90;69.80;;;;;;5031638;27;90368;-53
2023/11/08 01:49:40;;;;;;;;;;;12.90;69.70;;;;;;5030032;28;87167;-53
2023/11/08 01:52:06;;;;;;;;;;;12.90;69.80;;;;;;5030468;27;87477;-50
2023/11/08 01:54:32;;;;;;;;;;;12.90;69.80;;;;;;5027694;28;87078;-54
2023/11/08 01:56:59;;;;;;;;;;;12.90;69.90;;;;;;5034248;28;87155;-50
2023/11/08 01:59:25;;;;;;;;;;;12.90;69.90;;;;;;5035989;27;88969;-51
2023/11/08 02:01:51;;;;;;;;;;;12.90;69.80;;;;;;5031871;27;87227;-50
2023/11/08 02:04:18;;;;;;;;;;;12.90;69.90;;;;;;5034941;27;87387;-52
2023/11/08 02:06:43;;;;;;;;;;;12.90;69.80;;;;;;5028524;28;88127;-56
2023/11/08 02:09:09;;;;;;;;;;;12.90;69.60;;;;;;5033883;28;88075;-52
2023/11/08 02:11:34;;;;;;;;;;;12.90;69.60;;;;;;5031877;28;88394;-52
2023/11/08 02:14:01;;;;;;;;;;;12.90;69.80;;;;;;5030191;28;88654;-54
2023/11/08 02:16:29;;;;;;;;;;;12.90;69.70;;;;;;5030165;28;88387;-54
2023/11/08 02:18:56;;;;;;;;;;;12.90;69.70;;;;;;5033629;27;87445;-55
2023/11/08 02:21:23;;;;;;;;;;;12.90;69.60;;;;;;5033416;27;87481;-51
2023/11/08 02:23:49;;;;;;;;;;;12.90;69.70;;;;;;5030156;28;87245;-51
2023/11/08 02:26:14;;;;;;;;;;;12.90;69.70;;;;;;5032025;27;87321;-53
2023/11/08 02:28:40;;;;;;;;;;;12.90;69.70;;;;;;5037810;28;86435;-52
2023/11/08 02:31:06;;;;;;;;;;;12.90;69.90;;;;;;5032727;28;87176;-51
2023/11/08 02:33:31;;;;;;;;;;;12.90;69.70;;;;;;5029930;27;88242;-56
2023/11/08 02:36:00;;;;;;;;;;;12.90;69.80;;;;;;5027895;28;88185;-54
2023/11/08 02:38:26;;;;;;;;;;;12.90;69.80;;;;;;5035083;27;89884;-55
2023/11/08 02:40:52;;;;;;;;;;;12.90;69.80;;;;;;5031269;27;87111;-51
2023/11/08 02:43:17;;;;;;;;;;;12.90;69.80;;;;;;5031226;28;87644;-52
2023/11/08 02:45:43;;;;;;;;;;;12.90;69.60;;;;;;5028753;28;87971;-54
2023/11/08 02:48:09;;;;;;;;;;;12.90;69.80;;;;;;5030764;27;87475;-54
2023/11/08 02:50:38;;;;;;;;;;;12.90;69.70;;;;;;5029201;28;87672;-54
2023/11/08 02:53:04;;;;;;;;;;;12.90;69.90;;;;;;5028342;28;88707;-55
2023/11/08 02:55:30;;;;;;;;;;;12.90;69.60;;;;;;5036692;28;87082;-51
2023/11/08 02:57:55;;;;;;;;;;;12.90;69.90;;;;;;5029076;28;89134;-53
2023/11/08 03:00:21;;;;;;;;;;;12.90;69.80;;;;;;5032119;28;88996;-50
2023/11/08 03:02:47;;;;;;;;;;;12.90;69.80;;;;;;5031942;28;88420;-52
2023/11/08 03:05:13;;;;;;;;;;;12.90;70.00;;;;;;5030035;27;88094;-51
2023/11/08 03:07:39;;;;;;;;;;;12.90;69.90;;;;;;5031644;27;87118;-52
2023/11/08 03:10:04;;;;;;;;;;;12.90;69.90;;;;;;5033233;28;88822;-51
2023/11/08 03:12:30;;;;;;;;;;;12.90;69.70;;;;;;5031049;27;87888;-50
2023/11/08 03:14:56;;;;;;;;;;;12.90;69.80;;;;;;5031792;27;87081;-51
2023/11/08 03:17:22;;;;;;;;;;;12.90;69.70;;;;;;5030346;28;87861;-54
2023/11/08 03:19:47;;;;;;;;;;;12.90;69.90;;;;;;5031533;27;88137;-51
2023/11/08 03:22:14;;;;;;;;;;;12.90;69.90;;;;;;5033846;28;87894;-50
2023/11/08 03:24:39;;;;;;;;;;;12.90;70.00;;;;;;5029449;28;89317;-54
2023/11/08 03:27:05;;;;;;;;;;;12.90;69.80;;;;;;5029988;27;87125;-54
2023/11/08 03:29:31;;;;;;;;;;;12.90;69.80;;;;;;5031900;28;87603;-51
2023/11/08 03:31:57;;;;;;;;;;;12.90;69.80;;;;;;5035367;27;89362;-53
2023/11/08 03:34:23;;;;;;;;;;;12.90;70.00;;;;;;5032665;28;88565;-50
2023/11/08 03:36:49;;;;;;;;;;;12.90;69.80;;;;;;5032909;28;88789;-51
2023/11/08 03:39:15;;;;;;;;;;;12.90;69.90;;;;;;5036753;28;88023;-50
2023/11/08 03:41:41;;;;;;;;;;;12.90;69.70;;;;;;5037938;27;86380;-50
2023/11/08 03:44:07;;;;;;;;;;;12.90;69.80;;;;;;5036432;28;87121;-52
2023/11/08 03:46:32;;;;;;;;;;;12.90;69.90;;;;;;5033788;27;87166;-54
2023/11/08 03:48:58;;;;;;;;;;;12.90;69.90;;;;;;5035354;28;88548;-55
2023/11/08 03:51:24;;;;;;;;;;;12.90;69.80;;;;;;5034541;27;88043;-49
2023/11/08 03:53:51;;;;;;;;;;;12.90;69.90;;;;;;5034159;28;87109;-49
2023/11/08 03:56:17;;;;;;;;;;;12.90;69.90;;;;;;5032951;27;88989;-54
2023/11/08 03:58:42;;;;;;;;;;;12.90;70.60;;;;;;5035829;28;89461;-55
2023/11/08 04:01:08;;;;;;;;;;;12.90;69.80;;;;;;5035089;28;88910;-56
2023/11/08 04:03:34;;;;;;;;;;;12.90;69.90;;;;;;5033345;28;87504;-54
2023/11/08 04:06:00;;;;;;;;;;;12.90;70.60;;;;;;5038981;27;87113;-53
2023/11/08 04:08:25;;;;;;;;;;;12.90;70.10;;;;;;5035067;28;87151;-53
2023/11/08 04:10:52;;;;;;;;;;;12.90;70.10;;;;;;5032722;27;89429;-50
2023/11/08 04:13:18;;;;;;;;;;;12.90;70.10;;;;;;5032107;27;88023;-50
2023/11/08 04:15:45;;;;;;;;;;;12.90;69.90;;;;;;5032065;28;88380;-52
2023/11/08 04:18:10;;;;;;;;;;;12.90;70.20;;;;;;5035400;28;87857;-50
2023/11/08 04:20:36;;;;;;;;;;;12.90;70.10;;;;;;5037146;28;87103;-51
2023/11/08 04:23:01;;;;;;;;;;;12.90;70.00;;;;;;5036129;27;87372;-51
2023/11/08 04:25:27;;;;;;;;;;;12.90;70.10;;;;;;5032146;28;88078;-55
2023/11/08 04:27:52;;;;;;;;;;;12.90;70.10;;;;;;5037770;28;87169;-56
2023/11/08 04:30:18;;;;;;;;;;;12.90;70.10;;;;;;5035508;28;86991;-52
2023/11/08 04:32:44;;;;;;;;;;;12.90;70.00;;;;;;5033676;27;87232;-54
2023/11/08 04:35:10;;;;;;;;;;;12.90;70.10;;;;;;5030595;28;87866;-55
2023/11/08 04:37:38;;;;;;;;;;;12.90;70.10;;;;;;5033841;28;90173;-52
2023/11/08 04:40:04;;;;;;;;;;;12.90;70.20;;;;;;5029882;28;87866;-53
2023/11/08 04:42:30;;;;;;;;;;;12.90;70.20;;;;;;5032885;28;87350;-53
2023/11/08 04:44:56;;;;;;;;;;;12.90;70.20;;;;;;5035087;28;89776;-54
2023/11/08 04:47:21;;;;;;;;;;;12.90;70.10;;;;;;5036344;28;88663;-55
2023/11/08 04:49:48;;;;;;;;;;;12.90;70.80;;;;;;5030787;28;88201;-53
2023/11/08 04:52:14;;;;;;;;;;;12.90;70.10;;;;;;5035317;28;87294;-54
2023/11/08 04:54:39;;;;;;;;;;;12.90;70.10;;;;;;5035404;28;87510;-52
2023/11/08 04:57:05;;;;;;;;;;;12.90;70.20;;;;;;5031119;28;87150;-51
2023/11/08 04:59:32;;;;;;;;;;;12.90;70.20;;;;;;5034919;28;86990;-54
2023/11/08 05:01:59;;;;;;;;;;;12.90;70.20;;;;;;5033699;28;88259;-54
2023/11/08 05:04:25;;;;;;;;;;;12.90;70.20;;;;;;5029113;27;88049;-52
2023/11/08 05:06:50;;;;;;;;;;;12.90;70.20;;;;;;5035983;27;87121;-54
2023/11/08 05:09:17;;;;;;;;;;;12.90;70.00;;;;;;5033485;28;87349;-51
2023/11/08 05:11:42;;;;;;;;;;;12.90;70.20;;;;;;5033395;27;87144;-55
2023/11/08 05:14:08;;;;;;;;;;;12.90;70.00;;;;;;5031489;28;87433;-51
2023/11/08 05:16:34;;;;;;;;;;;12.90;70.20;;;;;;5031275;28;88019;-52
2023/11/08 05:18:59;;;;;;;;;;;12.90;70.10;;;;;;5031282;28;86428;-51
2023/11/08 05:21:26;;;;;;;;;;;12.90;70.30;;;;;;5035820;27;87950;-50
2023/11/08 05:23:52;;;;;;;;;;;12.90;70.30;;;;;;5033184;28;89857;-52
2023/11/08 05:26:19;;;;;;;;;;;12.90;70.20;;;;;;5029908;27;88257;-52
2023/11/08 05:28:44;;;;;;;;;;;12.90;70.20;;;;;;5027250;27;88350;-52
2023/11/08 05:31:11;;;;;;;;;;;12.90;70.30;;;;;;5032191;28;88002;-54
2023/11/08 05:33:40;;;;;;;;;;;12.90;70.30;;;;;;5030449;28;89144;-49
2023/11/08 05:36:05;;;;;;;;;;;12.90;70.20;;;;;;5031700;27;89436;-53
2023/11/08 05:38:31;;;;;;;;;;;12.90;70.20;;;;;;5033821;28;87430;-52
2023/11/08 05:40:56;;;;;;;;;;;12.90;70.30;;;;;;5033107;28;87529;-51
2023/11/08 05:43:22;;;;;;;;;;;12.90;70.20;;;;;;5035651;28;87400;-53
2023/11/08 05:45:48;;;;;;;;;;;12.90;70.20;;;;;;5028566;28;87223;-54
2023/11/08 05:48:13;;;;;;;;;;;12.90;70.30;;;;;;5032882;27;87788;-49
2023/11/08 05:50:43;;;;;;;;;;;12.90;70.20;;;;;;5030481;28;89736;-53
2023/11/08 05:53:08;;;;;;;;;;;12.90;70.20;;;;;;5030777;28;87486;-50
2023/11/08 05:55:34;;;;;;;;;;;12.90;70.30;;;;;;5029567;28;87585;-54
2023/11/08 05:57:59;;;;;;;;;;;12.90;70.30;;;;;;5034350;28;87281;-52
2023/11/08 06:00:25;;;;;;;;;;;12.90;70.10;;;;;;5033127;28;88948;-52
2023/11/08 06:02:50;;;;;;;;;;;12.90;70.10;;;;;;5028434;28;88213;-55
2023/11/08 06:05:16;;;;;;;;;;;12.90;70.10;;;;;;5030694;28;87164;-54
2023/11/08 06:07:44;;;;;;;;;;;12.90;70.10;;;;;;5029178;28;87408;-53
2023/11/08 06:10:09;;;;;;;;;;;12.90;70.20;;;;;;5027768;28;89450;-53
2023/11/08 06:12:35;;;;;;;;;;;12.90;70.00;;;;;;5027195;28;87399;-52
2023/11/08 06:15:00;;;;;;;;;;;12.90;70.00;;;;;;5032271;28;88234;-52
2023/11/08 06:17:26;;;;;;;;;;;12.90;70.10;;;;;;5032417;28;87255;-53
2023/11/08 06:19:52;;;;;;;;;;;12.90;70.20;;;;;;5031976;28;88180;-55
2023/11/08 06:22:19;;;;;;;;;;;12.90;70.20;;;;;;5028809;28;89431;-54
2023/11/08 06:24:45;;;;;;;;;;;12.90;70.10;;;;;;5029870;28;87218;-53
2023/11/08 06:27:10;;;;;;;;;;;12.90;70.20;;;;;;5029937;28;87448;-51
2023/11/08 06:29:39;;;;;;;;;;;12.90;70.00;;;;;;5025880;28;88048;-53
2023/11/08 06:32:06;;;;;;;;;;;12.90;70.10;;;;;;5031374;28;86341;-54
2023/11/08 06:34:31;;;;;;;;;;;12.90;70.10;;;;;;5035509;28;87057;-55
2023/11/08 06:36:57;;;;;;;;;;;12.90;70.10;;;;;;5035948;27;88086;-51
2023/11/08 06:39:23;;;;;;;;;;;12.90;70.00;;;;;;5031736;27;88870;-50
2023/11/08 06:41:48;;;;;;;;;;;12.90;70.10;;;;;;5030640;27;88176;-53
2023/11/08 06:44:15;;;;;;;;;;;12.90;70.10;;;;;;5031358;27;87101;-50
2023/11/08 06:46:40;;;;;;;;;;;12.90;70.00;;;;;;5028952;28;87393;-54
2023/11/08 06:49:07;;;;;;;;;;;12.90;70.60;;;;;;5024997;28;88178;-53
2023/11/08 06:51:32;;;;;;;;;;;12.90;70.10;;;;;;5026887;27;87124;-55
2023/11/08 06:53:58;;;;;;;;;;;12.90;69.90;;;;;;5032761;28;87937;-53
2023/11/08 06:56:24;;;;;;;;;;;12.90;70.00;;;;;;5030705;28;87498;-52
2023/11/08 06:58:49;;;;;;;;;;;12.90;70.00;;;;;;5030493;28;87029;-55
2023/11/08 07:01:15;;;;;;;;;;;12.90;69.90;;;;;;5028831;28;87098;-51
2023/11/08 07:03:41;;;;;;;;;;;12.90;70.00;;;;;;5029951;27;87983;-52
2023/11/08 07:06:06;;;;;;;;;;;12.90;70.00;;;;;;5039868;27;88389;-53
2023/11/08 07:08:32;;;;;;;;;;;12.90;69.90;;;;;;5035765;27;87988;-53
2023/11/08 07:10:58;;;;;;;;;;;12.90;70.00;;;;;;5033489;27;88002;-54
2023/11/08 07:13:23;;;;;;;;;;;12.90;70.10;;;;;;5037403;27;87347;-52
2023/11/08 07:15:49;;;;;;;;;;;12.90;70.00;;;;;;5033970;28;87597;-54
2023/11/08 07:18:15;;;;;;;;;;;12.90;70.00;;;;;;5035925;28;87191;-52
2023/11/08 07:20:42;;;;;;;;;;;12.90;70.00;;;;;;5044245;27;88438;-52
2023/11/08 07:23:08;;;;;;;;;;;12.90;70.00;;;;;;5037102;27;87144;-50
2023/11/08 07:25:34;;;;;;;;;;;12.90;70.00;;;;;;5033376;27;89195;-50
2023/11/08 07:27:59;;;;;;;;;;;12.90;70.00;;;;;;5037511;28;88242;-55
2023/11/08 07:30:27;;;;;;;;;;;12.90;70.00;;;;;;5033604;28;87193;-52
2023/11/08 07:32:53;;;;;;;;;;;12.90;70.10;;;;;;5032306;28;87475;-54
2023/11/08 07:35:18;;;;;;;;;;;12.90;70.10;;;;;;5031134;28;88048;-49
2023/11/08 07:37:44;;;;;;;;;;;12.90;70.00;;;;;;5032375;28;87298;-51
2023/11/08 07:40:12;;;;;;;;;;;12.90;70.00;;;;;;5037237;28;87323;-53
2023/11/08 07:42:38;;;;;;;;;;;12.90;70.00;;;;;;5033979;27;87062;-50
2023/11/08 07:45:05;;;;;;;;;;;12.90;70.10;;;;;;5035751;27;87378;-53
2023/11/08 07:47:31;;;;;;;;;;;12.90;70.00;;;;;;5035891;28;89568;-50
2023/11/08 07:49:56;;;;;;;;;;;12.90;70.00;;;;;;5032532;28;87048;-53
2023/11/08 07:52:22;;;;;;;;;;;12.90;70.00;;;;;;5036374;28;88296;-54
2023/11/08 07:54:48;;;;;;;;;;;12.90;69.90;;;;;;5033502;28;88943;-51
2023/11/08 07:57:13;;;;;;;;;;;12.90;70.10;;;;;;5030682;28;88665;-53
2023/11/08 07:59:39;;;;;;;;;;;12.90;70.10;;;;;;5037414;28;87009;-51
2023/11/08 08:02:05;;;;;;;;;;;12.90;70.20;;;;;;5032575;28;87914;-52
2023/11/08 08:04:30;;;;;;;;;;;12.90;70.20;;;;;;5031129;28;87214;-54
2023/11/08 08:06:56;;;;;;;;;;;12.90;70.10;;;;;;5029467;27;87882;-48
2023/11/08 08:09:22;;;;;;;;;;;12.90;70.20;;;;;;5035725;28;86402;-51
2023/11/08 08:11:47;;;;;;;;;;;12.90;70.30;;;;;;5033700;28;88002;-50
2023/11/08 08:14:13;;;;;;;;;;;12.90;70.20;;;;;;5032142;27;88008;-51
2023/11/08 08:16:41;;;;;;;;;;;12.90;70.20;;;;;;5031400;28;88829;-54
2023/11/08 08:19:08;;;;;;;;;;;12.90;70.00;;;;;;5032663;28;89875;-50
2023/11/08 08:21:34;;;;;;;;;;;12.90;70.00;;;;;;5032891;27;87815;-52
2023/11/08 08:23:59;;;;;;;;;;;12.90;70.20;;;;;;5033576;27;87671;-51
2023/11/08 08:26:25;;;;;;;;;;;12.90;70.10;;;;;;5033600;28;88633;-52
2023/11/08 08:28:50;;;;;;;;;;;12.90;70.00;;;;;;5038549;28;87043;-50
2023/11/08 08:31:17;;;;;;;;;;;12.90;70.00;;;;;;5034086;28;87660;-53
2023/11/08 08:33:42;;;;;;;;;;;13.00;70.00;;;;;;5031674;27;87397;-49
2023/11/08 08:36:08;;;;;;;;;;;12.90;70.00;;;;;;5034848;28;87355;-52
2023/11/08 08:38:33;;;;;;;;;;;12.90;70.00;;;;;;5031815;28;87750;-49
2023/11/08 08:40:59;;;;;;;;;;;13.00;70.20;;;;;;5028111;28;88196;-50
2023/11/08 08:43:25;;;;;;;;;;;12.90;70.10;;;;;;5034853;28;87248;-51
2023/11/08 08:45:51;;;;;;;;;;;12.90;70.00;;;;;;5032854;27;88025;-51
2023/11/08 08:48:16;;;;;;;;;;;13.00;70.00;;;;;;5035453;28;87975;-51
2023/11/08 08:50:42;;;;;;;;;;;12.90;70.00;;;;;;5034660;27;87386;-52
2023/11/08 08:53:08;;;;;;;;;;;12.90;70.00;;;;;;5035154;27;87959;-52
2023/11/08 08:55:35;;;;;;;;;;;12.90;70.10;;;;;;5033431;27;87317;-55
2023/11/08 08:58:01;;;;;;;;;;;12.90;70.10;;;;;;5031763;28;88597;-51
2023/11/08 09:00:27;;;;;;;;;;;13.00;69.90;;;;;;5031612;28;88097;-51
2023/11/08 09:02:53;;;;;;;;;;;13.00;69.90;;;;;;5038205;28;88755;-50
2023/11/08 09:05:20;;;;;;;;;;;13.00;69.80;;;;;;5033644;28;88536;-50
2023/11/08 09:07:46;;;;;;;;;;;12.90;69.90;;;;;;5035054;28;87090;-51
2023/11/08 09:10:12;;;;;;;;;;;12.90;69.80;;;;;;5030754;28;89033;-53
2023/11/08 09:12:37;;;;;;;;;;;13.00;69.90;;;;;;5032071;28;88210;-53
2023/11/08 09:15:06;;;;;;;;;;;13.00;69.80;;;;;;5033235;28;88182;-52
2023/11/08 09:17:32;;;;;;;;;;;13.00;69.90;;;;;;5033475;28;87537;-54
2023/11/08 09:19:57;;;;;;;;;;;13.00;69.90;;;;;;5032236;27;88792;-55
2023/11/08 09:22:23;;;;;;;;;;;13.00;69.90;;;;;;5034955;28;86477;-55
2023/11/08 09:24:48;;;;;;;;;;;13.00;69.90;;;;;;5029203;28;89147;-55
2023/11/08 09:27:14;;;;;;;;;;;13.00;69.80;;;;;;5034648;28;88151;-53
2023/11/08 09:29:40;;;;;;;;;;;12.90;69.80;;;;;;5033362;28;88831;-53
2023/11/08 09:32:06;;;;;;;;;;;13.00;69.80;;;;;;5032217;28;88127;-52
2023/11/08 09:34:32;;;;;;;;;;;13.00;69.80;;;;;;5035615;27;87112;-49
2023/11/08 09:37:00;;;;;;;;;;;13.00;69.70;;;;;;5031280;27;88018;-51
2023/11/08 09:39:27;;;;;;;;;;;13.00;69.80;;;;;;5029539;28;89676;-51
2023/11/08 09:41:53;;;;;;;;;;;13.00;69.80;;;;;;5029156;27;87565;-49
2023/11/08 09:44:20;;;;;;;;;;;13.00;69.80;;;;;;5033197;28;90613;-54
2023/11/08 09:46:46;;;;;;;;;;;13.00;69.70;;;;;;5031768;28;87452;-53
2023/11/08 09:49:12;;;;;;;;;;;13.00;69.80;;;;;;5034760;27;87131;-51
2023/11/08 09:51:38;;;;;;;;;;;13.00;69.80;;;;;;5032085;28;87312;-52
2023/11/08 09:54:04;;;;;;;;;;;13.00;69.70;;;;;;5032975;28;88044;-50
2023/11/08 09:56:31;;;;;;;;;;;13.00;69.70;;;;;;5030359;28;89563;-52
2023/11/08 09:58:57;;;;;;;;;;;13.00;69.80;;;;;;5033712;27;89305;-53
2023/11/08 10:01:27;;;;;;;;;;;13.00;69.60;;;;;;5029462;27;87316;-51
2023/11/08 10:03:53;;;;;;;;;;;13.00;69.70;;;;;;5028699;28;87123;-50
2023/11/08 10:06:19;;;;;;;;;;;13.00;69.80;;;;;;5026106;27;89586;-50
2023/11/08 10:08:46;;;;;;;;;;;13.00;70.00;;;;;;5031653;28;87833;-50
2023/11/08 10:11:14;;;;;;;;;;;13.00;69.90;;;;;;5032686;28;87620;-51
2023/11/08 10:13:40;;;;;;;;;;;13.00;69.90;;;;;;5029895;28;88843;-53
2023/11/08 10:16:06;;;;;;;;;;;13.00;69.90;;;;;;5034291;27;86936;-52
2023/11/08 10:18:32;;;;;;;;;;;13.00;70.00;;;;;;5032610;27;88162;-51
2023/11/08 10:21:03;;;;;;;;;;;13.00;70.60;;;;;;5031632;28;88849;-50
2023/11/08 10:23:29;;;;;;;;;;;13.00;70.00;;;;;;5029076;28;87618;-51
2023/11/08 10:26:14;;;;;;;;;;;12.90;70.10;;;;;;5029563;28;87984;-51
2023/11/08 10:28:55;;;;;;;;;;;13.00;70.00;;;;;;5032518;28;87808;-50
2023/11/08 10:31:26;;;;;;;;;;;13.00;69.70;;;;;;5030238;28;88961;-53
2023/11/08 10:33:57;;;;;;;;;;;13.00;70.00;;;;;;5035040;28;88278;-53
2023/11/08 10:36:23;;;;;;;;;;;13.00;69.90;;;;;;5031441;27;89013;-51
2023/11/08 10:38:49;;;;;;;;;;;13.00;69.90;;;;;;5030140;27;89068;-52
2023/11/08 10:41:15;;;;;;;;;;;13.00;69.90;;;;;;5033306;28;87742;-54
2023/11/08 10:43:43;;;;;;;;;;;13.00;70.00;;;;;;5031515;28;89655;-52
2023/11/08 10:46:10;;;;;;;;;;;13.00;70.00;;;;;;5032700;27;88078;-51
2023/11/08 10:48:35;;;;;;;;;;;13.00;70.00;;;;;;5033330;27;87841;-51
2023/11/08 10:51:01;;;;;;;;;;;13.00;70.00;;;;;;5032576;27;88964;-49
2023/11/08 10:53:28;;;;;;;;;;;13.00;70.10;;;;;;5029430;27;89073;-53
2023/11/08 10:55:54;;;;;;;;;;;13.00;70.00;;;;;;5036233;28;87237;-52
2023/11/08 10:58:21;;;;;;;;;;;13.00;70.10;;;;;;5028721;28;88969;-51
2023/11/08 11:00:49;;;;;;;;;;;13.00;70.00;;;;;;5032655;27;86457;-52
2023/11/08 11:03:15;;;;;;;;;;;13.00;69.90;;;;;;5030295;28;87028;-49
2023/11/08 11:05:45;;;;;;;;;;;13.00;70.10;;;;;;5031226;27;89490;-49
2023/11/08 11:08:13;;;;;;;;;;;13.00;70.10;;;;;;5027134;28;87999;-52
2023/11/08 11:10:39;;;;;;;;;;;13.00;70.30;;;;;;5029845;28;88873;-53
2023/11/08 11:13:04;;;;;;;;;;;13.00;70.20;;;;;;5028668;28;88200;-52
2023/11/08 11:15:36;;;;;;;;;;;13.00;70.30;;;;;;5037990;27;87170;-52
2023/11/08 11:18:03;;;;;;;;;;;13.00;70.40;;;;;;5028960;28;87865;-55
2023/11/08 11:20:34;;;;;;;;;;;13.00;70.30;;;;;;5031395;27;87133;-53
2023/11/08 11:23:00;;;;;;;;;;;13.00;70.20;;;;;;5032012;28;87737;-51
2023/11/08 11:26:05;;;;;;;;;;;13.00;70.40;;;;;;5032226;27;88504;-52
2023/11/08 11:28:45;;;;;;;;;;;12.90;70.40;;;;;;4991867;28;87843;-52
2023/11/08 11:31:29;;;;;;;;;;;12.90;70.40;;;;;;4992882;28;87782;-52
2023/11/08 11:33:55;;;;;;;;;;;13.00;70.50;;;;;;5017234;28;88929;-49
2023/11/08 11:36:21;;;;;;;;;;;12.90;70.40;;;;;;5027610;27;87203;-51
2023/11/08 11:39:07;;;;;;;;;;;12.90;70.30;;;;;;5034333;27;87822;-50
2023/11/08 11:41:33;;;;;;;;;;;12.90;70.40;;;;;;5031983;28;87145;-50
2023/11/08 11:43:59;;;;;;;;;;;13.00;70.40;;;;;;5031752;28;87453;-52
2023/11/08 11:46:27;;;;;;;;;;;12.90;70.30;;;;;;5029411;28;87924;-54
2023/11/08 11:49:11;;;;;;;;;;;12.90;70.60;;;;;;5029929;27;87191;-53
2023/11/08 11:51:40;;;;;;;;;;;12.90;70.50;;;;;;5036569;28;87992;-52
2023/11/08 11:54:05;;;;;;;;;;;12.90;70.40;;;;;;5033229;28;87983;-53
2023/11/08 11:56:31;;;;;;;;;;;12.90;70.40;;;;;;5033486;28;87199;-56
2023/11/08 11:58:59;;;;;;;;;;;12.90;70.50;;;;;;5037631;28;88071;-54
2023/11/08 12:01:26;;;;;;;;;;;12.90;70.60;;;;;;5035776;27;89406;-50
2023/11/08 12:03:52;;;;;;;;;;;12.90;70.60;;;;;;5036474;28;88889;-53
2023/11/08 12:06:18;;;;;;;;;;;12.90;71.30;;;;;;5032536;27;87938;-57
2023/11/08 12:08:44;;;;;;;;;;;12.90;70.70;;;;;;5034503;28;88598;-54
2023/11/08 12:11:11;;;;;;;;;;;13.00;70.60;;;;;;5033256;28;87378;-54
2023/11/08 12:13:52;;;;;;;;;;;12.90;70.80;;;;;;5035964;27;88340;-55
2023/11/08 12:16:19;;;;;;;;;;;12.90;70.90;;;;;;5031632;28;87507;-49
2023/11/08 12:18:49;;;;;;;;;;;12.90;70.80;;;;;;5035854;28;86968;-52
2023/11/08 12:21:15;;;;;;;;;;;13.00;71.10;;;;;;5035417;28;87978;-54
2023/11/08 12:23:41;;;;;;;;;;;12.90;70.90;;;;;;5032330;28;88610;-53
2023/11/08 12:26:07;;;;;;;;;;;12.90;71.10;;;;;;5030207;28;89496;-49
2023/11/08 12:28:33;;;;;;;;;;;12.90;70.80;;;;;;5030817;27;87193;-56
2023/11/08 12:31:06;;;;;;;;;;;12.90;71.20;;;;;;5030612;28;89034;-50
2023/11/08 12:33:32;;;;;;;;;;;12.90;71.30;;;;;;5035315;28;89285;-51
2023/11/08 12:35:58;;;;;;;;;;;12.90;71.20;;;;;;5028047;27;87951;-54
2023/11/08 12:38:23;;;;;;;;;;;12.90;71.40;;;;;;5032676;28;87551;-52
2023/11/08 12:41:02;;;;;;;;;;;12.90;71.30;;;;;;5031395;28;88170;-53
2023/11/08 12:43:27;;;;;;;;;;;12.90;71.40;;;;;;5036439;28;87799;-52
2023/11/08 12:45:59;;;;;;;;;;;13.00;71.50;;;;;;5034001;28;87469;-49
2023/11/08 12:48:27;;;;;;;;;;;13.00;71.30;;;;;;5044669;27;88108;-47
2023/11/08 12:50:52;;;;;;;;;;;12.90;71.40;;;;;;5032843;28;88389;-49
2023/11/08 12:53:18;;;;;;;;;;;12.90;71.20;;;;;;5034281;27;88108;-53
2023/11/08 12:55:43;;;;;;;;;;;12.90;71.40;;;;;;5032655;28;87834;-53
2023/11/08 12:58:22;;;;;;;;;;;12.90;71.40;;;;;;5030828;28;87791;-51
2023/11/08 13:00:47;;;;;;;;;;;12.90;71.40;;;;;;5026904;28;89592;-51
2023/11/08 13:03:18;;;;;;;;;;;12.90;71.40;;;;;;5028480;28;88381;-50
2023/11/08 13:05:46;;;;;;;;;;;12.90;71.30;;;;;;5033646;27;88221;-50
2023/11/08 13:08:12;;;;;;;;;;;12.90;71.40;;;;;;5034257;28;87167;-52
2023/11/08 13:10:38;;;;;;;;;;;12.90;71.40;;;;;;5036206;28;88448;-52
2023/11/08 13:13:03;;;;;;;;;;;12.90;71.40;;;;;;5028592;28;88926;-56
2023/11/08 13:15:29;;;;;;;;;;;12.90;71.20;;;;;;5030729;28;88073;-50
2023/11/08 13:17:54;;;;;;;;;;;12.90;71.20;;;;;;5030694;28;87431;-51
2023/11/08 13:20:20;;;;;;;;;;;12.90;71.30;;;;;;5034272;28;88045;-50
2023/11/08 13:22:45;;;;;;;;;;;12.90;71.40;;;;;;5034024;27;87560;-50
2023/11/08 13:25:11;;;;;;;;;;;12.90;71.40;;;;;;5032013;27;87069;-49
2023/11/08 13:27:36;;;;;;;;;;;12.90;71.40;;;;;;5038583;27;88111;-50
2023/11/08 13:30:04;;;;;;;;;;;12.90;71.30;;;;;;5033372;28;88258;-51
2023/11/08 13:32:31;;;;;;;;;;;12.90;71.50;;;;;;5032042;27;88167;-50
2023/11/08 13:34:58;;;;;;;;;;;12.90;71.40;;;;;;5032796;28;87149;-49
2023/11/08 13:37:26;;;;;;;;;;;12.80;71.50;;;;;;5035291;27;88077;-47
2023/11/08 13:39:53;;;;;;;;;;;12.90;71.50;;;;;;5029244;28;89556;-51
2023/11/08 13:42:18;;;;;;;;;;;12.80;71.20;;;;;;5034978;27;87163;-48
2023/11/08 13:44:44;;;;;;;;;;;12.90;71.40;;;;;;5031642;28;87883;-50
2023/11/08 13:47:09;;;;;;;;;;;12.80;71.10;;;;;;5034956;28;88030;-52
2023/11/08 13:49:35;;;;;;;;;;;12.80;71.40;;;;;;5035284;28;87799;-49
2023/11/08 13:52:01;;;;;;;;;;;12.80;71.60;;;;;;5031678;28;88165;-54
2023/11/08 13:54:26;;;;;;;;;;;12.80;71.50;;;;;;5031244;28;86392;-52
2023/11/08 13:56:52;;;;;;;;;;;12.80;71.40;;;;;;5035241;27;86950;-53
2023/11/08 13:59:21;;;;;;;;;;;12.80;71.40;;;;;;5029595;27;88597;-52
2023/11/08 14:01:47;;;;;;;;;;;12.80;71.40;;;;;;5026183;28;88279;-52
2023/11/08 14:04:13;;;;;;;;;;;12.80;71.50;;;;;;5029107;28;88532;-49
2023/11/08 14:06:39;;;;;;;;;;;12.80;71.40;;;;;;5027920;28;89537;-50
2023/11/08 14:09:05;;;;;;;;;;;12.80;71.50;;;;;;5036080;28;88846;-48
2023/11/08 14:11:31;;;;;;;;;;;12.80;71.40;;;;;;5029909;27;87303;-51